AEA8BC LOWW-EPWA
Flight info
| Callsign | AEA8BC |
|---|---|
| Flight time | 1h 2m |
| Altitude | 35000 |
| Route | LEDVA DCT NETIR DCT LIGDI DCT KURON T709 KOTEK M866 LOGDA |
| Aircraft | B38M/M-SDE1FGHILORVWXY/HB1 |
Departure
| Time | 2026-04-26 10:05 |
|---|---|
| Airport | Vienna International Airport (LOWW) |
Arrival
| Time | 2026-04-26 11:07 |
|---|---|
| Airport | Warsaw Chopin Airport (EPWA) |
| Time | Latitude | Longitude | Altitude | Speed | Heading |
|---|---|---|---|---|---|
| 2026-04-26 09:17 | 48.11886 | 16.56829 | 602 ft | 0 kts | 201° |
| 2026-04-26 09:51 | 48.11892 | 16.56833 | 602 ft | 4 kts | 201° |
| 2026-04-26 09:51 | 48.11916 | 16.56848 | 601 ft | 4 kts | 196° |
| 2026-04-26 09:51 | 48.11941 | 16.56849 | 601 ft | 4 kts | 157° |
| 2026-04-26 09:51 | 48.11958 | 16.56827 | 600 ft | 2 kts | 116° |
| 2026-04-26 09:52 | 48.11961 | 16.56819 | 600 ft | 0 kts | 116° |
| 2026-04-26 09:56 | 48.11961 | 16.56820 | 600 ft | 0 kts | 116° |
| 2026-04-26 09:58 | 48.11960 | 16.56823 | 600 ft | 2 kts | 116° |
| 2026-04-26 09:59 | 48.11944 | 16.56872 | 601 ft | 8 kts | 116° |
| 2026-04-26 09:59 | 48.11927 | 16.56924 | 602 ft | 9 kts | 116° |
| 2026-04-26 09:59 | 48.11888 | 16.57042 | 603 ft | 10 kts | 116° |
| 2026-04-26 09:59 | 48.11874 | 16.57085 | 603 ft | 5 kts | 116° |
| 2026-04-26 10:00 | 48.11859 | 16.57133 | 614 ft | 5 kts | 113° |
| 2026-04-26 10:00 | 48.11853 | 16.57212 | 604 ft | 10 kts | 99° |
| 2026-04-26 10:00 | 48.11822 | 16.57319 | 609 ft | 12 kts | 115° |
| 2026-04-26 10:00 | 48.11804 | 16.57449 | 610 ft | 14 kts | 119° |
| 2026-04-26 10:01 | 48.11725 | 16.57507 | 613 ft | 12 kts | 163° |
| 2026-04-26 10:01 | 48.11643 | 16.57543 | 620 ft | 13 kts | 163° |
| 2026-04-26 10:01 | 48.11551 | 16.57583 | 618 ft | 14 kts | 165° |
| 2026-04-26 10:01 | 48.11451 | 16.57624 | 617 ft | 16 kts | 165° |
| 2026-04-26 10:02 | 48.11336 | 16.57671 | 612 ft | 19 kts | 165° |
| 2026-04-26 10:02 | 48.11233 | 16.57665 | 619 ft | 14 kts | 210° |
| 2026-04-26 10:02 | 48.11179 | 16.57620 | 625 ft | 13 kts | 207° |
| 2026-04-26 10:02 | 48.11101 | 16.57552 | 619 ft | 13 kts | 216° |
| 2026-04-26 10:03 | 48.11027 | 16.57491 | 623 ft | 12 kts | 206° |
| 2026-04-26 10:03 | 48.10963 | 16.57420 | 627 ft | 12 kts | 256° |
| 2026-04-26 10:03 | 48.10995 | 16.57294 | 625 ft | 15 kts | 296° |
| 2026-04-26 10:03 | 48.11037 | 16.57148 | 628 ft | 17 kts | 296° |
| 2026-04-26 10:04 | 48.11218 | 16.56613 | 628 ft | 100 kts | 297° |
| 2026-04-26 10:04 | 48.11656 | 16.55349 | 632 ft | 170 kts | 297° |
| 2026-04-26 10:04 | 48.12181 | 16.53531 | 769 ft | 200 kts | 292° |
| 2026-04-26 10:04 | 48.12572 | 16.51611 | 867 ft | 192 kts | 279° |
| 2026-04-26 10:05 | 48.12398 | 16.49656 | 1030 ft | 193 kts | 256° |
| 2026-04-26 10:05 | 48.11714 | 16.47795 | 1497 ft | 212 kts | 228° |
| 2026-04-26 10:05 | 48.10558 | 16.46702 | 2922 ft | 193 kts | 204° |
| 2026-04-26 10:05 | 48.09347 | 16.45698 | 3523 ft | 212 kts | 215° |
| 2026-04-26 10:06 | 48.08174 | 16.44146 | 3876 ft | 237 kts | 241° |
| 2026-04-26 10:06 | 48.07742 | 16.41815 | 4618 ft | 226 kts | 284° |
| 2026-04-26 10:06 | 48.08372 | 16.39793 | 5892 ft | 215 kts | 309° |
| 2026-04-26 10:06 | 48.09194 | 16.37935 | 6931 ft | 220 kts | 296° |
| 2026-04-26 10:07 | 48.09802 | 16.35733 | 7652 ft | 238 kts | 295° |
| 2026-04-26 10:07 | 48.10465 | 16.33421 | 8565 ft | 243 kts | 296° |
| 2026-04-26 10:07 | 48.11156 | 16.31099 | 9626 ft | 247 kts | 297° |
| 2026-04-26 10:07 | 48.11876 | 16.28728 | 10486 ft | 256 kts | 299° |
| 2026-04-26 10:08 | 48.13015 | 16.26622 | 10971 ft | 272 kts | 326° |
| 2026-04-26 10:08 | 48.14823 | 16.25511 | 11454 ft | 294 kts | 344° |
| 2026-04-26 10:08 | 48.16940 | 16.25301 | 11983 ft | 317 kts | 1° |
| 2026-04-26 10:08 | 48.19106 | 16.26329 | 12657 ft | 339 kts | 24° |
| 2026-04-26 10:09 | 48.21086 | 16.28290 | 13595 ft | 343 kts | 27° |
| 2026-04-26 10:09 | 48.23116 | 16.30244 | 14341 ft | 348 kts | 26° |
| 2026-04-26 10:09 | 48.25154 | 16.32213 | 15117 ft | 351 kts | 27° |
| 2026-04-26 10:09 | 48.27223 | 16.34210 | 15840 ft | 355 kts | 27° |
| 2026-04-26 10:10 | 48.29311 | 16.36225 | 16534 ft | 359 kts | 27° |
| 2026-04-26 10:10 | 48.31416 | 16.38267 | 17263 ft | 362 kts | 27° |
| 2026-04-26 10:10 | 48.33545 | 16.40328 | 17946 ft | 365 kts | 27° |
| 2026-04-26 10:10 | 48.35686 | 16.42402 | 18673 ft | 367 kts | 27° |
| 2026-04-26 10:11 | 48.37838 | 16.44498 | 19297 ft | 370 kts | 27° |
| 2026-04-26 10:11 | 48.40013 | 16.46614 | 19856 ft | 374 kts | 27° |
| 2026-04-26 10:11 | 48.42207 | 16.48754 | 20428 ft | 378 kts | 27° |
| 2026-04-26 10:11 | 48.44428 | 16.50920 | 21002 ft | 381 kts | 27° |
| 2026-04-26 10:12 | 48.46669 | 16.53110 | 21564 ft | 385 kts | 27° |
| 2026-04-26 10:12 | 48.48924 | 16.55315 | 22113 ft | 389 kts | 27° |
| 2026-04-26 10:12 | 48.51202 | 16.57546 | 22669 ft | 392 kts | 28° |
| 2026-04-26 10:12 | 48.53505 | 16.59806 | 23208 ft | 396 kts | 28° |
| 2026-04-26 10:13 | 48.55828 | 16.62086 | 23728 ft | 401 kts | 27° |
| 2026-04-26 10:13 | 48.58176 | 16.64395 | 24173 ft | 405 kts | 27° |
| 2026-04-26 10:13 | 48.60545 | 16.66728 | 24605 ft | 408 kts | 27° |
| 2026-04-26 10:13 | 48.62898 | 16.69048 | 25034 ft | 411 kts | 28° |
| 2026-04-26 10:14 | 48.65336 | 16.71454 | 25444 ft | 415 kts | 28° |
| 2026-04-26 10:14 | 48.67727 | 16.73817 | 25862 ft | 418 kts | 28° |
| 2026-04-26 10:14 | 48.70173 | 16.76238 | 26277 ft | 421 kts | 28° |
| 2026-04-26 10:14 | 48.72569 | 16.78833 | 26686 ft | 429 kts | 37° |
| 2026-04-26 10:15 | 48.74547 | 16.82290 | 27179 ft | 437 kts | 46° |
| 2026-04-26 10:15 | 48.76465 | 16.85898 | 27518 ft | 442 kts | 45° |
| 2026-04-26 10:15 | 48.78392 | 16.89544 | 27900 ft | 444 kts | 46° |
| 2026-04-26 10:15 | 48.80316 | 16.93228 | 28279 ft | 448 kts | 46° |
| 2026-04-26 10:16 | 48.82251 | 16.96955 | 28648 ft | 451 kts | 46° |
| 2026-04-26 10:16 | 48.84192 | 17.00704 | 29016 ft | 453 kts | 46° |
| 2026-04-26 10:16 | 48.86147 | 17.04486 | 29390 ft | 456 kts | 46° |
| 2026-04-26 10:16 | 48.88113 | 17.08297 | 29729 ft | 459 kts | 46° |
| 2026-04-26 10:17 | 48.90089 | 17.12132 | 30084 ft | 462 kts | 46° |
| 2026-04-26 10:17 | 48.92074 | 17.15989 | 30442 ft | 465 kts | 46° |
| 2026-04-26 10:17 | 48.94067 | 17.19867 | 30787 ft | 466 kts | 46° |
| 2026-04-26 10:17 | 48.96044 | 17.23720 | 31076 ft | 468 kts | 46° |
| 2026-04-26 10:18 | 48.98052 | 17.27639 | 31367 ft | 471 kts | 46° |
| 2026-04-26 10:18 | 49.00071 | 17.31584 | 31688 ft | 472 kts | 46° |
| 2026-04-26 10:18 | 49.02082 | 17.35522 | 32091 ft | 471 kts | 46° |
| 2026-04-26 10:18 | 49.04094 | 17.39466 | 32489 ft | 470 kts | 46° |
| 2026-04-26 10:19 | 49.06101 | 17.43406 | 32889 ft | 470 kts | 47° |
| 2026-04-26 10:19 | 49.08104 | 17.47344 | 33274 ft | 469 kts | 47° |
| 2026-04-26 10:19 | 49.10098 | 17.51270 | 33749 ft | 467 kts | 46° |
| 2026-04-26 10:19 | 49.12078 | 17.55175 | 34250 ft | 464 kts | 46° |
| 2026-04-26 10:20 | 49.14051 | 17.59071 | 34578 ft | 463 kts | 46° |
| 2026-04-26 10:20 | 49.15354 | 17.61647 | 34755 ft | 463 kts | 47° |
| 2026-04-26 10:20 | 49.17991 | 17.66868 | 35131 ft | 464 kts | 47° |
| 2026-04-26 10:20 | 49.19964 | 17.70781 | 35238 ft | 465 kts | 47° |
| 2026-04-26 10:21 | 49.23894 | 17.78593 | 35208 ft | 462 kts | 47° |
| 2026-04-26 10:21 | 49.27809 | 17.86398 | 35238 ft | 460 kts | 46° |
| 2026-04-26 10:22 | 49.31684 | 17.94146 | 35205 ft | 458 kts | 46° |
| 2026-04-26 10:22 | 49.35532 | 18.01863 | 35210 ft | 458 kts | 46° |
| 2026-04-26 10:23 | 49.39395 | 18.09632 | 35209 ft | 458 kts | 46° |
| 2026-04-26 10:23 | 49.43256 | 18.17418 | 35211 ft | 457 kts | 46° |
| 2026-04-26 10:24 | 49.47097 | 18.25190 | 35209 ft | 455 kts | 45° |
| 2026-04-26 10:24 | 49.50921 | 18.32949 | 35221 ft | 456 kts | 45° |
| 2026-04-26 10:25 | 49.54749 | 18.40737 | 35206 ft | 456 kts | 45° |
| 2026-04-26 10:25 | 49.58567 | 18.48529 | 35196 ft | 456 kts | 46° |
| 2026-04-26 10:26 | 49.62380 | 18.56330 | 35202 ft | 456 kts | 46° |
| 2026-04-26 10:26 | 49.66194 | 18.64154 | 35195 ft | 456 kts | 46° |
| 2026-04-26 10:27 | 49.70121 | 18.71769 | 35153 ft | 445 kts | 35° |
| 2026-04-26 10:27 | 49.74743 | 18.78104 | 35159 ft | 444 kts | 34° |
| 2026-04-26 10:28 | 49.79356 | 18.84474 | 35226 ft | 445 kts | 34° |
| 2026-04-26 10:28 | 49.83955 | 18.90817 | 35203 ft | 441 kts | 33° |
| 2026-04-26 10:29 | 49.88536 | 18.97149 | 35188 ft | 441 kts | 33° |
| 2026-04-26 10:29 | 49.93082 | 19.03450 | 35183 ft | 441 kts | 33° |
| 2026-04-26 10:30 | 49.97653 | 19.09802 | 35169 ft | 441 kts | 33° |
| 2026-04-26 10:30 | 50.02212 | 19.16155 | 35177 ft | 439 kts | 33° |
| 2026-04-26 10:31 | 50.06747 | 19.22491 | 35173 ft | 439 kts | 33° |
| 2026-04-26 10:31 | 50.11290 | 19.28854 | 35168 ft | 439 kts | 33° |
| 2026-04-26 10:32 | 50.14837 | 19.33835 | 35163 ft | 439 kts | 33° |
| 2026-04-26 10:32 | 50.19283 | 19.40091 | 35193 ft | 439 kts | 32° |
| 2026-04-26 10:33 | 50.23797 | 19.46462 | 35164 ft | 437 kts | 32° |
| 2026-04-26 10:33 | 50.28313 | 19.52847 | 35152 ft | 438 kts | 32° |
| 2026-04-26 10:34 | 50.32562 | 19.59798 | 35161 ft | 446 kts | 39° |
| 2026-04-26 10:34 | 50.36668 | 19.67086 | 35203 ft | 446 kts | 38° |
| 2026-04-26 10:35 | 50.40755 | 19.74386 | 35149 ft | 445 kts | 39° |
| 2026-04-26 10:35 | 50.44839 | 19.81705 | 35153 ft | 446 kts | 39° |
| 2026-04-26 10:36 | 50.48890 | 19.88984 | 35135 ft | 445 kts | 38° |
| 2026-04-26 10:36 | 50.52957 | 19.96314 | 35140 ft | 445 kts | 38° |
| 2026-04-26 10:37 | 50.57027 | 20.03668 | 35155 ft | 446 kts | 38° |
| 2026-04-26 10:37 | 50.61079 | 20.11018 | 34437 ft | 444 kts | 39° |
| 2026-04-26 10:38 | 50.62788 | 20.15170 | 33810 ft | 464 kts | 55° |
| 2026-04-26 10:38 | 50.64018 | 20.19870 | 33286 ft | 458 kts | 52° |
| 2026-04-26 10:38 | 50.65659 | 20.23978 | 32568 ft | 431 kts | 37° |
| 2026-04-26 10:38 | 50.67787 | 20.27114 | 31802 ft | 412 kts | 24° |
| 2026-04-26 10:39 | 50.70156 | 20.29619 | 31012 ft | 408 kts | 19° |
| 2026-04-26 10:39 | 50.72686 | 20.31379 | 30326 ft | 388 kts | 7° |
| 2026-04-26 10:39 | 50.75274 | 20.32604 | 29833 ft | 389 kts | 5° |
| 2026-04-26 10:39 | 50.77849 | 20.34020 | 29140 ft | 397 kts | 14° |
| 2026-04-26 10:40 | 50.80313 | 20.35791 | 28603 ft | 389 kts | 12° |
| 2026-04-26 10:40 | 50.82325 | 20.37197 | 28172 ft | 384 kts | 12° |
| 2026-04-26 10:40 | 50.84293 | 20.38562 | 27742 ft | 380 kts | 12° |
| 2026-04-26 10:40 | 50.86671 | 20.40209 | 27218 ft | 375 kts | 12° |
| 2026-04-26 10:41 | 50.89046 | 20.41853 | 26703 ft | 370 kts | 12° |
| 2026-04-26 10:41 | 50.91393 | 20.43479 | 26194 ft | 366 kts | 12° |
| 2026-04-26 10:41 | 50.93712 | 20.45088 | 25695 ft | 362 kts | 12° |
| 2026-04-26 10:41 | 50.96004 | 20.46679 | 25254 ft | 358 kts | 11° |
| 2026-04-26 10:42 | 50.98276 | 20.48258 | 24742 ft | 355 kts | 11° |
| 2026-04-26 10:42 | 50.99778 | 20.49303 | 24403 ft | 354 kts | 11° |
| 2026-04-26 10:42 | 51.02772 | 20.51388 | 23766 ft | 350 kts | 11° |
| 2026-04-26 10:42 | 51.04996 | 20.52940 | 23208 ft | 347 kts | 12° |
| 2026-04-26 10:43 | 51.07193 | 20.54473 | 22703 ft | 343 kts | 12° |
| 2026-04-26 10:43 | 51.09365 | 20.55991 | 22237 ft | 338 kts | 12° |
| 2026-04-26 10:43 | 51.11506 | 20.57489 | 21787 ft | 334 kts | 12° |
| 2026-04-26 10:43 | 51.13615 | 20.58965 | 21350 ft | 330 kts | 12° |
| 2026-04-26 10:44 | 51.15711 | 20.60433 | 20890 ft | 329 kts | 12° |
| 2026-04-26 10:44 | 51.17827 | 20.61916 | 20500 ft | 335 kts | 12° |
| 2026-04-26 10:44 | 51.19965 | 20.63419 | 20037 ft | 336 kts | 12° |
| 2026-04-26 10:44 | 51.22093 | 20.64917 | 19692 ft | 329 kts | 12° |
| 2026-04-26 10:45 | 51.24151 | 20.66367 | 19475 ft | 319 kts | 12° |
| 2026-04-26 10:45 | 51.26115 | 20.67750 | 19327 ft | 308 kts | 12° |
| 2026-04-26 10:45 | 51.28048 | 20.69105 | 19148 ft | 297 kts | 10° |
| 2026-04-26 10:45 | 51.29974 | 20.70143 | 18857 ft | 292 kts | 7° |
| 2026-04-26 10:46 | 51.31920 | 20.71163 | 18598 ft | 296 kts | 7° |
| 2026-04-26 10:46 | 51.33882 | 20.72208 | 18308 ft | 297 kts | 8° |
| 2026-04-26 10:46 | 51.35768 | 20.73223 | 17989 ft | 297 kts | 8° |
| 2026-04-26 10:46 | 51.37720 | 20.74278 | 17688 ft | 296 kts | 8° |
| 2026-04-26 10:47 | 51.39671 | 20.75335 | 17445 ft | 296 kts | 9° |
| 2026-04-26 10:47 | 51.41614 | 20.76391 | 17118 ft | 294 kts | 9° |
| 2026-04-26 10:47 | 51.43547 | 20.77442 | 16801 ft | 293 kts | 9° |
| 2026-04-26 10:47 | 51.45483 | 20.78496 | 16492 ft | 293 kts | 9° |
| 2026-04-26 10:48 | 51.47411 | 20.79546 | 16188 ft | 293 kts | 9° |
| 2026-04-26 10:48 | 51.49339 | 20.80584 | 15833 ft | 292 kts | 9° |
| 2026-04-26 10:48 | 51.50611 | 20.81268 | 15653 ft | 291 kts | 9° |
| 2026-04-26 10:48 | 51.52533 | 20.82304 | 15355 ft | 291 kts | 10° |
| 2026-04-26 10:49 | 51.54454 | 20.83340 | 15069 ft | 291 kts | 10° |
| 2026-04-26 10:49 | 51.56373 | 20.84376 | 14771 ft | 291 kts | 10° |
| 2026-04-26 10:49 | 51.58289 | 20.85411 | 14468 ft | 291 kts | 11° |
| 2026-04-26 10:49 | 51.60204 | 20.86447 | 14176 ft | 290 kts | 11° |
| 2026-04-26 10:50 | 51.62114 | 20.87480 | 13874 ft | 290 kts | 11° |
| 2026-04-26 10:50 | 51.64019 | 20.88512 | 13531 ft | 287 kts | 11° |
| 2026-04-26 10:50 | 51.65899 | 20.89532 | 13216 ft | 282 kts | 11° |
| 2026-04-26 10:50 | 51.67738 | 20.90529 | 12919 ft | 276 kts | 11° |
| 2026-04-26 10:51 | 51.69532 | 20.91480 | 12616 ft | 265 kts | 11° |
| 2026-04-26 10:51 | 51.72945 | 20.93267 | 12117 ft | 257 kts | 11° |
| 2026-04-26 10:51 | 51.74650 | 20.94163 | 11861 ft | 258 kts | 11° |
| 2026-04-26 10:52 | 51.76358 | 20.95019 | 11592 ft | 255 kts | 6° |
| 2026-04-26 10:52 | 51.78071 | 20.94933 | 11268 ft | 245 kts | 340° |
| 2026-04-26 10:52 | 51.79639 | 20.93856 | 11040 ft | 246 kts | 334° |
| 2026-04-26 10:52 | 51.81199 | 20.92683 | 10804 ft | 247 kts | 333° |
| 2026-04-26 10:53 | 51.82741 | 20.91477 | 10560 ft | 244 kts | 333° |
| 2026-04-26 10:53 | 51.84224 | 20.90290 | 10303 ft | 239 kts | 332° |
| 2026-04-26 10:53 | 51.85710 | 20.89086 | 10070 ft | 239 kts | 332° |
| 2026-04-26 10:54 | 51.88692 | 20.86637 | 9558 ft | 237 kts | 332° |
| 2026-04-26 10:54 | 51.90131 | 20.85447 | 9303 ft | 231 kts | 331° |
| 2026-04-26 10:54 | 51.91519 | 20.84295 | 9090 ft | 217 kts | 331° |
| 2026-04-26 10:54 | 51.92845 | 20.83191 | 8897 ft | 213 kts | 331° |
| 2026-04-26 10:55 | 51.94164 | 20.82094 | 8702 ft | 213 kts | 331° |
| 2026-04-26 10:55 | 51.95483 | 20.80995 | 8490 ft | 213 kts | 331° |
| 2026-04-26 10:55 | 51.96832 | 20.80036 | 8263 ft | 212 kts | 346° |
| 2026-04-26 10:55 | 51.98306 | 20.80191 | 7970 ft | 220 kts | 14° |
| 2026-04-26 10:56 | 51.99595 | 20.81633 | 7706 ft | 235 kts | 43° |
| 2026-04-26 10:56 | 52.00449 | 20.83965 | 7502 ft | 244 kts | 56° |
| 2026-04-26 10:56 | 52.01223 | 20.86416 | 7288 ft | 244 kts | 55° |
| 2026-04-26 10:56 | 52.01943 | 20.88920 | 6991 ft | 249 kts | 68° |
| 2026-04-26 10:57 | 52.01991 | 20.91767 | 6567 ft | 259 kts | 101° |
| 2026-04-26 10:57 | 52.01127 | 20.94329 | 6205 ft | 264 kts | 134° |
| 2026-04-26 10:57 | 51.99637 | 20.96045 | 5947 ft | 264 kts | 154° |
| 2026-04-26 10:57 | 51.98014 | 20.97485 | 5755 ft | 267 kts | 153° |
| 2026-04-26 10:58 | 51.96391 | 20.98928 | 5520 ft | 266 kts | 153° |
| 2026-04-26 10:58 | 51.94771 | 21.00363 | 5243 ft | 264 kts | 153° |
| 2026-04-26 10:58 | 51.93180 | 21.01765 | 4965 ft | 263 kts | 153° |
| 2026-04-26 10:58 | 51.91568 | 21.03167 | 4768 ft | 262 kts | 153° |
| 2026-04-26 10:59 | 51.90000 | 21.04675 | 4629 ft | 260 kts | 138° |
| 2026-04-26 10:59 | 51.89019 | 21.06941 | 4476 ft | 237 kts | 104° |
| 2026-04-26 10:59 | 51.88823 | 21.09418 | 4355 ft | 213 kts | 75° |
| 2026-04-26 10:59 | 51.89202 | 21.11659 | 4294 ft | 204 kts | 59° |
| 2026-04-26 11:00 | 51.89745 | 21.13783 | 4279 ft | 204 kts | 57° |
| 2026-04-26 11:00 | 51.90433 | 21.15727 | 4189 ft | 192 kts | 36° |
| 2026-04-26 11:00 | 51.91514 | 21.16727 | 4068 ft | 173 kts | 4° |
| 2026-04-26 11:00 | 51.92673 | 21.16677 | 4023 ft | 165 kts | 340° |
| 2026-04-26 11:01 | 51.93762 | 21.16064 | 3999 ft | 166 kts | 338° |
| 2026-04-26 11:01 | 51.94837 | 21.15396 | 3955 ft | 165 kts | 334° |
| 2026-04-26 11:01 | 51.95884 | 21.14621 | 3799 ft | 169 kts | 332° |
| 2026-04-26 11:01 | 51.96922 | 21.13776 | 3769 ft | 166 kts | 331° |
| 2026-04-26 11:02 | 51.97940 | 21.12914 | 3705 ft | 164 kts | 330° |
| 2026-04-26 11:02 | 51.98950 | 21.12046 | 3616 ft | 164 kts | 330° |
| 2026-04-26 11:02 | 51.99953 | 21.11179 | 3554 ft | 160 kts | 330° |
| 2026-04-26 11:02 | 52.00921 | 21.10341 | 3475 ft | 155 kts | 330° |
| 2026-04-26 11:03 | 52.01884 | 21.09505 | 3285 ft | 160 kts | 330° |
| 2026-04-26 11:03 | 52.02877 | 21.08646 | 3077 ft | 163 kts | 330° |
| 2026-04-26 11:03 | 52.03872 | 21.07780 | 2941 ft | 162 kts | 330° |
| 2026-04-26 11:03 | 52.04865 | 21.06916 | 2755 ft | 162 kts | 330° |
| 2026-04-26 11:04 | 52.05857 | 21.06053 | 2560 ft | 162 kts | 330° |
| 2026-04-26 11:04 | 52.06856 | 21.05191 | 2307 ft | 163 kts | 331° |
| 2026-04-26 11:04 | 52.07853 | 21.04394 | 2066 ft | 161 kts | 332° |
| 2026-04-26 11:04 | 52.08842 | 21.03539 | 1760 ft | 159 kts | 329° |
| 2026-04-26 11:05 | 52.09812 | 21.02663 | 1561 ft | 158 kts | 330° |
| 2026-04-26 11:05 | 52.10754 | 21.01811 | 1248 ft | 147 kts | 329° |
| 2026-04-26 11:05 | 52.11578 | 21.01091 | 1078 ft | 126 kts | 328° |
| 2026-04-26 11:05 | 52.12316 | 21.00425 | 827 ft | 120 kts | 324° |
| 2026-04-26 11:06 | 52.13057 | 20.99788 | 803 ft | 120 kts | 328° |
| 2026-04-26 11:06 | 52.13787 | 20.99189 | 685 ft | 116 kts | 323° |
| 2026-04-26 11:06 | 52.14505 | 20.98539 | 532 ft | 120 kts | 327° |
| 2026-04-26 11:06 | 52.15243 | 20.97880 | 426 ft | 123 kts | 326° |
| 2026-04-26 11:07 | 52.15969 | 20.97246 | 358 ft | 92 kts | 321° |
| 2026-04-26 11:07 | 52.16128 | 20.97073 | 359 ft | 0 kts | 331° |
| 2026-04-26 11:07 | 52.16227 | 20.97005 | 357 ft | 25 kts | 346° |
| 2026-04-26 11:07 | 52.16392 | 20.96880 | 355 ft | 27 kts | 329° |
| 2026-04-26 11:08 | 52.16617 | 20.96676 | 359 ft | 49 kts | 331° |
| 2026-04-26 11:08 | 52.16914 | 20.96512 | 361 ft | 41 kts | 358° |
| 2026-04-26 11:08 | 52.17077 | 20.96549 | 354 ft | 0 kts | 45° |
| 2026-04-26 11:09 | 52.17078 | 20.96551 | 359 ft | 1 kts | 45° |
| 2026-04-26 11:10 | 52.17104 | 20.96587 | 362 ft | 10 kts | 34° |
| 2026-04-26 11:10 | 52.17199 | 20.96569 | 354 ft | 19 kts | 334° |
| 2026-04-26 11:10 | 52.17336 | 20.96446 | 357 ft | 25 kts | 333° |
| 2026-04-26 11:10 | 52.17453 | 20.96461 | 358 ft | 19 kts | 64° |
| 2026-04-26 11:11 | 52.17522 | 20.96614 | 356 ft | 12 kts | 59° |
| 2026-04-26 11:11 | 52.17490 | 20.96714 | 354 ft | 7 kts | 139° |
| 2026-04-26 11:11 | 52.17472 | 20.96742 | 358 ft | 3 kts | 137° |
| 2026-04-26 11:11 | 52.17460 | 20.96758 | 357 ft | 0 kts | 140° |